Terminal Aerodrome Forecast
Issued by NWS Jacksonville, FL

Home | Current Version | Previous Version | Text Only | Print | Product List | Glossary On
Versions: 1 2 3 4 5 6 7 8 9 10 11 12 13 14 15 16 17 18 19 20 21 22 23 24 25 26 27 28 29 30 31 32 33 34 35
000
FTUS42 KJAX 251700
TAFJAX
TAF
KJAX 251721Z 2518/2618 31008KT P6SM SCT025 BKN100
     FM251900 31009KT P6SM SCT025 SCT100
     FM260100 35003KT P6SM SCT250
     FM260800 04003KT P6SM SCT250
     FM261400 06005KT P6SM SCT250=

USA.gov is the U.S. government's official web portal to all federal, state and local government web resources and services.